createdAt,value
2019-01-04T00:02:08.176Z,13.74
2019-01-04T00:04:39.652Z,13.58
2019-01-04T00:07:11.182Z,13.54
2019-01-04T00:09:42.748Z,13.54
2019-01-04T00:12:14.140Z,13.61
2019-01-04T00:14:46.010Z,13.61
2019-01-04T00:17:17.238Z,13.65
2019-01-04T00:19:48.527Z,13.59
2019-01-04T00:22:20.217Z,13.67
2019-01-04T00:24:51.850Z,13.60
2019-01-04T00:27:23.504Z,13.57
2019-01-04T00:29:55.261Z,13.57
2019-01-04T00:32:26.653Z,13.64
2019-01-04T00:34:58.383Z,13.61
2019-01-04T00:37:29.903Z,13.61
2019-01-04T00:40:01.132Z,13.63
2019-01-04T00:42:32.386Z,13.62
2019-01-04T00:45:04.226Z,13.64
2019-01-04T00:47:35.730Z,13.56
2019-01-04T00:50:08.195Z,13.59
2019-01-04T00:52:39.821Z,13.59
2019-01-04T00:55:47.145Z,13.55
2019-01-04T00:59:00.879Z,13.54
2019-01-04T01:02:06.941Z,13.53
2019-01-04T01:05:16.895Z,13.50
2019-01-04T01:08:35.975Z,13.56
2019-01-04T01:12:01.095Z,13.51
2019-01-04T01:15:13.039Z,13.51
2019-01-04T01:18:18.924Z,13.47
2019-01-04T01:21:21.115Z,13.52
2019-01-04T01:24:33.919Z,13.45
2019-01-04T01:27:41.540Z,13.45
2019-01-04T01:31:09.795Z,13.30
2019-01-04T01:34:09.580Z,13.42
2019-01-04T01:37:30.118Z,13.42
2019-01-04T01:40:32.685Z,13.35
2019-01-04T01:43:49.183Z,13.35
2019-01-04T01:46:53.201Z,13.35
2019-01-04T01:49:59.270Z,13.22
2019-01-04T01:52:34.583Z,13.24
2019-01-04T01:55:06.236Z,13.27
2019-01-04T01:57:37.668Z,13.19
2019-01-04T02:00:09.097Z,13.26
2019-01-04T02:02:42.105Z,13.29
2019-01-04T02:05:13.714Z,13.24
2019-01-04T02:07:45.228Z,13.24
2019-01-04T02:10:16.369Z,13.24
2019-01-04T02:12:47.663Z,13.30
2019-01-04T02:15:18.843Z,13.27
2019-01-04T02:17:50.478Z,13.17
2019-01-04T02:20:21.750Z,13.36
2019-01-04T02:22:53.018Z,13.35
2019-01-04T02:25:24.201Z,13.35
2019-01-04T02:27:55.672Z,13.39
2019-01-04T02:30:27.091Z,13.39
2019-01-04T02:32:58.833Z,13.57
2019-01-04T02:35:30.004Z,13.57
2019-01-04T02:38:01.318Z,13.65
2019-01-04T02:40:32.764Z,13.65
2019-01-04T02:43:05.063Z,13.74
2019-01-04T02:45:36.226Z,13.74
2019-01-04T02:48:07.506Z,13.75
2019-01-04T02:50:39.178Z,13.75
2019-01-04T02:53:10.416Z,13.75
2019-01-04T02:55:41.833Z,13.82
2019-01-04T02:58:13.258Z,13.91
2019-01-04T03:00:44.669Z,14.01
2019-01-04T03:03:16.380Z,14.01
2019-01-04T03:05:47.643Z,14.01
2019-01-04T03:08:19.120Z,13.99
2019-01-04T03:10:50.666Z,14.12
2019-01-04T03:13:22.342Z,14.19
2019-01-04T03:15:53.792Z,14.23
2019-01-04T03:18:25.754Z,14.20
2019-01-04T03:20:56.903Z,14.20
2019-01-04T03:23:28.177Z,14.28
2019-01-04T03:25:59.571Z,14.37
2019-01-04T03:28:31.332Z,14.39
2019-01-04T03:31:02.806Z,14.39
2019-01-04T03:33:34.724Z,14.44
2019-01-04T03:36:06.202Z,14.44
2019-01-04T03:38:37.615Z,14.52
2019-01-04T03:41:09.194Z,14.63
2019-01-04T03:43:40.419Z,14.63
2019-01-04T03:46:11.427Z,14.61
2019-01-04T03:48:43.122Z,14.65
2019-01-04T03:51:14.484Z,14.69
2019-01-04T03:53:45.815Z,14.72
2019-01-04T03:56:17.377Z,14.77
2019-01-04T03:58:49.400Z,14.77
2019-01-04T04:01:20.716Z,14.89
2019-01-04T04:03:52.442Z,14.95
2019-01-04T04:06:23.997Z,14.97
2019-01-04T04:08:55.312Z,14.97
2019-01-04T04:11:26.358Z,14.99
2019-01-04T04:13:58.136Z,15.10
2019-01-04T04:16:29.507Z,15.10
2019-01-04T04:19:01.138Z,15.12
2019-01-04T04:21:32.690Z,15.12
2019-01-04T04:24:04.454Z,15.16
2019-01-04T04:26:36.003Z,15.20
2019-01-04T04:29:08.063Z,15.24
2019-01-04T04:31:39.119Z,15.27
2019-01-04T04:34:10.962Z,15.31
2019-01-04T04:36:42.034Z,15.31
2019-01-04T04:39:13.775Z,15.34
2019-01-04T04:41:44.926Z,15.31
2019-01-04T04:44:16.223Z,15.31
2019-01-04T04:46:47.492Z,15.67
2019-01-04T04:49:18.768Z,15.67
2019-01-04T04:51:49.903Z,15.95
2019-01-04T04:54:21.212Z,15.97
2019-01-04T04:56:52.431Z,16.07
2019-01-04T04:59:24.094Z,16.07
2019-01-04T05:01:55.129Z,16.05
2019-01-04T05:04:26.820Z,16.05
2019-01-04T05:06:58.005Z,16.05
2019-01-04T05:09:29.510Z,16.02
2019-01-04T05:12:00.982Z,16.02
2019-01-04T05:14:32.237Z,16.10
2019-01-04T05:17:03.661Z,15.99
2019-01-04T05:19:35.475Z,15.99
2019-01-04T05:22:06.937Z,16.04
2019-01-04T05:24:38.177Z,16.22
2019-01-04T05:27:09.570Z,16.38
2019-01-04T05:29:41.451Z,16.24
2019-01-04T05:32:12.718Z,16.24
2019-01-04T05:34:44.531Z,16.27
2019-01-04T05:37:15.816Z,16.33
2019-01-04T05:39:47.656Z,16.33
2019-01-04T05:42:18.863Z,16.48
2019-01-04T05:44:50.233Z,16.53
2019-01-04T05:47:21.397Z,16.53
2019-01-04T05:49:53.132Z,16.48
2019-01-04T05:52:24.277Z,16.48
2019-01-04T05:54:55.854Z,16.40
2019-01-04T05:57:27.260Z,16.37
2019-01-04T05:59:58.973Z,16.37
2019-01-04T06:02:30.317Z,16.35
2019-01-04T06:05:02.242Z,16.31
2019-01-04T06:07:33.771Z,16.36
2019-01-04T06:10:05.470Z,16.36
2019-01-04T06:12:36.695Z,16.60
2019-01-04T06:15:08.309Z,16.60
2019-01-04T06:17:39.501Z,16.61
2019-01-04T06:20:10.894Z,16.66
2019-01-04T06:22:42.117Z,16.74
2019-01-04T06:25:13.397Z,16.88
2019-01-04T06:27:44.603Z,16.88
2019-01-04T06:30:16.446Z,16.71
2019-01-04T06:32:47.500Z,16.94
2019-01-04T06:35:19.302Z,16.94
2019-01-04T06:37:50.974Z,17.03
2019-01-04T06:40:22.528Z,17.05
2019-01-04T06:42:54.074Z,17.05
2019-01-04T06:45:25.703Z,16.96
2019-01-04T06:47:57.066Z,17.04
2019-01-04T06:50:29.923Z,17.05
2019-01-04T06:53:01.371Z,17.05
2019-01-04T06:55:54.317Z,17.35
2019-01-04T06:58:26.118Z,17.39
2019-01-04T07:00:57.794Z,17.39
2019-01-04T07:03:32.550Z,17.30
2019-01-04T07:06:04.708Z,17.35
2019-01-04T07:08:36.174Z,17.38
2019-01-04T07:11:07.543Z,17.40
2019-01-04T07:13:39.174Z,17.41
2019-01-04T07:16:11.074Z,17.41
2019-01-04T07:18:42.686Z,17.56
2019-01-04T07:21:14.811Z,17.44
2019-01-04T07:23:46.164Z,17.44
2019-01-04T07:26:18.504Z,18.28
2019-01-04T07:28:49.968Z,17.74
2019-01-04T07:31:21.803Z,17.49
2019-01-04T07:33:53.203Z,17.49
2019-01-04T07:36:25.492Z,17.37
2019-01-04T07:38:56.712Z,17.52
2019-01-04T07:41:28.250Z,17.46
2019-01-04T07:43:59.376Z,17.45
2019-01-04T07:46:30.866Z,17.63
2019-01-04T07:49:02.272Z,17.63
2019-01-04T07:51:33.637Z,17.94
2019-01-04T07:54:05.217Z,17.91
2019-01-04T07:56:37.024Z,18.63
2019-01-04T07:59:08.528Z,18.63
2019-01-04T08:01:39.997Z,18.20
2019-01-04T08:04:12.297Z,18.79
2019-01-04T08:06:44.960Z,18.79
2019-01-04T08:09:16.331Z,18.19
2019-01-04T08:11:48.110Z,18.27
2019-01-04T08:14:19.425Z,18.82
2019-01-04T08:16:51.132Z,18.82
2019-01-04T08:19:22.341Z,18.76
2019-01-04T08:21:53.913Z,18.33
2019-01-04T08:24:25.529Z,18.14
2019-01-04T08:26:57.130Z,18.18
2019-01-04T08:29:28.545Z,18.20
2019-01-04T08:32:00.525Z,18.20
2019-01-04T08:34:31.877Z,18.27
2019-01-04T08:37:03.812Z,18.27
2019-01-04T08:39:35.274Z,18.33
2019-01-04T08:42:07.158Z,18.33
2019-01-04T08:44:38.880Z,18.51
2019-01-04T08:47:10.256Z,18.14
2019-01-04T08:49:41.553Z,18.14
2019-01-04T08:52:12.988Z,18.74
2019-01-04T08:54:44.458Z,19.37
2019-01-04T08:57:15.788Z,19.37
2019-01-04T08:59:47.141Z,18.71
2019-01-04T09:02:18.484Z,18.71
2019-01-04T09:04:50.312Z,18.39
2019-01-04T09:07:21.982Z,18.46
2019-01-04T09:09:53.511Z,18.46
2019-01-04T09:12:25.121Z,18.60
2019-01-04T09:14:56.409Z,18.60
2019-01-04T09:17:27.955Z,18.94
2019-01-04T09:20:16.131Z,19.29
2019-01-04T09:22:49.544Z,19.29
2019-01-04T09:25:21.495Z,19.09
2019-01-04T09:27:53.297Z,18.70
2019-01-04T09:30:25.553Z,18.61
2019-01-04T09:32:57.169Z,18.64
2019-01-04T09:35:28.629Z,18.64
2019-01-04T09:38:00.722Z,19.38
2019-01-04T09:40:31.867Z,19.21
2019-01-04T09:43:03.676Z,19.16
2019-01-04T09:45:34.819Z,19.32
2019-01-04T09:48:06.215Z,19.09
2019-01-04T09:50:38.202Z,19.09
2019-01-04T09:53:10.368Z,19.62
2019-01-04T09:55:41.560Z,19.70
2019-01-04T09:58:13.306Z,19.44
2019-01-04T10:00:46.137Z,19.61
2019-01-04T10:03:18.772Z,19.44
2019-01-04T10:05:50.631Z,19.44
2019-01-04T10:08:23.868Z,19.11
2019-01-04T10:10:55.300Z,19.19
2019-01-04T10:13:27.053Z,19.48
2019-01-04T10:15:58.335Z,19.48
2019-01-04T10:18:30.276Z,19.17
2019-01-04T10:21:02.109Z,19.34
2019-01-04T10:23:34.087Z,19.33
2019-01-04T10:26:05.540Z,19.33
2019-01-04T10:28:36.920Z,19.28
2019-01-04T10:31:08.983Z,19.30
2019-01-04T10:33:40.491Z,19.19
2019-01-04T10:36:12.285Z,19.19
2019-01-04T10:38:46.451Z,19.14
2019-01-04T10:41:17.762Z,19.16
2019-01-04T10:43:49.674Z,18.98
2019-01-04T10:46:21.022Z,19.10
2019-01-04T10:48:52.497Z,19.10
2019-01-04T10:51:23.948Z,19.03
2019-01-04T10:53:56.101Z,19.07
2019-01-04T10:56:27.626Z,18.78
2019-01-04T10:58:59.252Z,18.83
2019-01-04T11:01:30.787Z,18.87
2019-01-04T11:04:02.467Z,18.88
2019-01-04T11:06:34.318Z,18.91
2019-01-04T11:09:09.630Z,18.69
2019-01-04T11:11:40.795Z,18.73
2019-01-04T11:14:12.900Z,18.73
2019-01-04T11:16:44.663Z,18.62
2019-01-04T11:19:16.230Z,18.62
2019-01-04T11:21:49.142Z,18.64
2019-01-04T11:24:54.832Z,18.59
2019-01-04T11:27:50.132Z,18.60
2019-01-04T11:30:47.815Z,18.51
2019-01-04T11:33:37.388Z,18.51
2019-01-04T11:36:35.951Z,18.50
2019-01-04T11:39:34.697Z,18.46
2019-01-04T11:43:05.303Z,18.50
2019-01-04T11:45:55.439Z,18.50
2019-01-04T11:49:06.591Z,18.50
2019-01-04T11:52:07.250Z,18.51
2019-01-04T11:54:39.037Z,18.60
2019-01-04T11:57:10.677Z,18.58
2019-01-04T11:59:42.139Z,18.59
2019-01-04T12:02:14.569Z,18.58
2019-01-04T12:04:49.297Z,18.55
2019-01-04T12:07:20.973Z,18.52
2019-01-04T12:09:53.220Z,18.54
2019-01-04T12:12:24.916Z,18.53
2019-01-04T12:14:56.605Z,18.53
2019-01-04T12:17:28.083Z,18.53
2019-01-04T12:19:59.676Z,18.53
2019-01-04T12:22:31.098Z,18.52
2019-01-04T12:25:03.050Z,18.52
2019-01-04T12:27:34.308Z,18.51
2019-01-04T12:30:05.800Z,18.48
2019-01-04T12:32:37.219Z,18.46
2019-01-04T12:35:08.558Z,18.46
2019-01-04T12:37:40.972Z,18.44
2019-01-04T12:40:12.665Z,18.47
2019-01-04T12:42:44.435Z,18.45
2019-01-04T12:45:16.076Z,18.45
2019-01-04T12:47:48.622Z,18.49
2019-01-04T12:50:20.022Z,18.49
2019-01-04T12:52:51.639Z,18.48
2019-01-04T12:55:23.015Z,18.51
2019-01-04T12:57:54.361Z,18.49
2019-01-04T13:00:25.686Z,18.48
2019-01-04T13:02:57.137Z,18.50
2019-01-04T13:05:28.639Z,18.50
2019-01-04T13:08:00.345Z,18.50
2019-01-04T13:10:32.860Z,18.51
2019-01-04T13:13:04.305Z,18.48
2019-01-04T13:15:35.634Z,18.45
2019-01-04T13:18:06.997Z,18.48
2019-01-04T13:20:38.315Z,18.52
2019-01-04T13:23:09.731Z,18.57
2019-01-04T13:25:41.327Z,18.47
2019-01-04T13:28:12.799Z,18.47
2019-01-04T13:30:44.579Z,18.52
2019-01-04T13:33:16.270Z,18.52
2019-01-04T13:35:47.788Z,18.49
2019-01-04T13:38:20.127Z,18.40
2019-01-04T13:40:52.217Z,18.40
2019-01-04T13:43:23.577Z,18.29
2019-01-04T13:45:54.866Z,18.35
2019-01-04T13:48:26.301Z,18.31
2019-01-04T13:50:57.740Z,18.17
2019-01-04T13:53:28.949Z,18.23
2019-01-04T13:56:00.203Z,18.36
2019-01-04T13:58:31.620Z,18.40
2019-01-04T14:01:03.140Z,18.47
2019-01-04T14:03:34.549Z,18.47
2019-01-04T14:06:06.887Z,18.51
2019-01-04T14:08:38.420Z,18.49
2019-01-04T14:11:11.151Z,18.51
2019-01-04T14:13:42.416Z,18.50
2019-01-04T14:16:14.304Z,18.51
2019-01-04T14:18:45.700Z,18.51
2019-01-04T14:21:17.020Z,18.51
2019-01-04T14:23:48.303Z,18.49
2019-01-04T14:26:19.814Z,18.49
2019-01-04T14:28:51.343Z,18.50
2019-01-04T14:31:22.732Z,18.50
2019-01-04T14:33:53.890Z,18.50
2019-01-04T14:36:25.597Z,17.95
2019-01-04T14:38:56.761Z,17.73
2019-01-04T14:41:29.100Z,17.65
2019-01-04T14:44:00.307Z,17.59
2019-01-04T14:46:31.879Z,17.61
2019-01-04T14:49:03.226Z,17.61
2019-01-04T14:51:34.898Z,17.59
2019-01-04T14:54:06.522Z,17.52
2019-01-04T14:56:38.431Z,17.42
2019-01-04T14:59:09.910Z,17.42
2019-01-04T15:01:41.259Z,17.48
2019-01-04T15:04:12.304Z,17.48
2019-01-04T15:06:43.828Z,17.45
2019-01-04T15:09:15.209Z,17.44
2019-01-04T15:11:47.299Z,17.34
2019-01-04T15:14:19.011Z,17.34
2019-01-04T15:16:50.704Z,17.34
2019-01-04T15:19:22.388Z,17.33
2019-01-04T15:21:53.733Z,17.33
2019-01-04T15:24:24.961Z,17.33
2019-01-04T15:26:56.645Z,17.34
2019-01-04T15:29:27.871Z,17.33
2019-01-04T15:31:59.087Z,17.33
2019-01-04T15:34:30.777Z,17.31
2019-01-04T15:37:02.228Z,17.19
2019-01-04T15:39:34.436Z,17.17
2019-01-04T15:42:06.436Z,17.17
2019-01-04T15:44:38.116Z,17.18
2019-01-04T15:47:10.037Z,17.22
2019-01-04T15:49:41.635Z,17.22
2019-01-04T15:52:13.813Z,17.20
2019-01-04T15:54:45.128Z,17.30
2019-01-04T15:57:16.646Z,17.16
2019-01-04T15:59:47.978Z,17.16
2019-01-04T16:02:19.561Z,17.18
2019-01-04T16:04:50.758Z,17.18
2019-01-04T16:07:22.397Z,17.09
2019-01-04T16:09:54.067Z,16.98
2019-01-04T16:12:26.356Z,16.98
2019-01-04T16:14:58.722Z,17.13
2019-01-04T16:17:30.518Z,17.04
2019-01-04T16:20:01.696Z,17.04
2019-01-04T16:22:33.453Z,17.01
2019-01-04T16:25:05.133Z,17.03
2019-01-04T16:27:37.040Z,17.08
2019-01-04T16:30:10.465Z,17.08
2019-01-04T16:32:42.035Z,17.14
2019-01-04T16:35:13.553Z,17.00
2019-01-04T16:37:45.141Z,17.00
2019-01-04T16:40:16.575Z,17.02
2019-01-04T16:42:48.642Z,17.02
2019-01-04T16:45:20.388Z,17.00
2019-01-04T16:47:52.102Z,17.00
2019-01-04T16:50:24.105Z,16.93
2019-01-04T16:52:59.605Z,16.93
2019-01-04T16:55:29.690Z,16.80
2019-01-04T16:58:01.302Z,16.94
2019-01-04T17:00:32.720Z,16.91
2019-01-04T17:03:04.463Z,16.89
2019-01-04T17:05:35.932Z,16.90
2019-01-04T17:08:07.750Z,16.87
2019-01-04T17:10:39.074Z,16.81
2019-01-04T17:13:11.548Z,16.79
2019-01-04T17:15:42.779Z,16.73
2019-01-04T17:18:14.261Z,16.70
2019-01-04T17:20:45.997Z,16.59
2019-01-04T17:23:17.406Z,16.59
2019-01-04T17:25:48.830Z,16.57
2019-01-04T17:28:20.265Z,16.64
2019-01-04T17:30:51.729Z,16.52
2019-01-04T17:33:23.296Z,16.64
2019-01-04T17:35:55.113Z,16.64
2019-01-04T17:38:26.811Z,16.56
2019-01-04T17:40:58.292Z,16.56
2019-01-04T17:43:30.056Z,16.48
2019-01-04T17:46:01.576Z,16.48
2019-01-04T17:48:33.154Z,16.61
2019-01-04T17:51:05.021Z,16.62
2019-01-04T17:53:36.430Z,16.62
2019-01-04T17:56:07.820Z,16.48
2019-01-04T17:58:39.703Z,16.48
2019-01-04T18:01:11.119Z,16.36
2019-01-04T18:03:42.802Z,16.39
2019-01-04T18:06:14.245Z,16.37
2019-01-04T18:08:45.727Z,16.35
2019-01-04T18:11:17.552Z,16.46
2019-01-04T18:13:49.937Z,16.46
2019-01-04T18:16:21.240Z,16.70
2019-01-04T18:18:53.082Z,16.61
2019-01-04T18:21:24.509Z,16.59
2019-01-04T18:23:56.082Z,16.59
2019-01-04T18:26:27.263Z,16.48
2019-01-04T18:28:58.800Z,16.48
2019-01-04T18:31:30.147Z,16.59
2019-01-04T18:34:01.459Z,16.59
2019-01-04T18:36:32.821Z,16.61
2019-01-04T18:39:04.885Z,16.46
2019-01-04T18:41:36.894Z,16.46
2019-01-04T18:44:08.662Z,16.35
2019-01-04T18:46:40.520Z,16.28
2019-01-04T18:49:11.987Z,16.21
2019-01-04T18:51:43.630Z,16.21
2019-01-04T18:54:15.398Z,16.42
2019-01-04T18:56:46.900Z,16.49
2019-01-04T18:59:18.765Z,16.44
2019-01-04T19:01:51.247Z,16.37
2019-01-04T19:04:23.066Z,16.37
2019-01-04T19:06:55.529Z,16.32
2019-01-04T19:09:26.892Z,16.32
2019-01-04T19:11:58.279Z,16.20
2019-01-04T19:14:30.564Z,16.20
2019-01-04T19:17:01.961Z,16.20
2019-01-04T19:19:33.557Z,16.38
2019-01-04T19:22:04.964Z,16.22
2019-01-04T19:24:36.382Z,16.21
2019-01-04T19:27:09.257Z,16.21
2019-01-04T19:29:40.511Z,16.26
2019-01-04T19:32:11.943Z,16.08
2019-01-04T19:34:43.700Z,16.14
2019-01-04T19:37:15.459Z,16.12
2019-01-04T19:39:46.881Z,16.12
2019-01-04T19:42:18.145Z,16.23
2019-01-04T19:44:50.484Z,16.25
2019-01-04T19:47:22.056Z,16.08
2019-01-04T19:49:54.356Z,16.08
2019-01-04T19:52:25.833Z,16.08
2019-01-04T19:54:57.218Z,16.18
2019-01-04T19:57:28.441Z,15.96
2019-01-04T20:00:00.205Z,16.04
2019-01-04T20:02:31.769Z,16.07
2019-01-04T20:05:03.541Z,16.07
2019-01-04T20:08:28.300Z,15.95
2019-01-04T20:12:15.186Z,15.73
2019-01-04T20:15:47.649Z,15.73
2019-01-04T20:18:40.521Z,15.66
2019-01-04T20:21:37.137Z,15.66
2019-01-04T20:24:16.486Z,15.92
2019-01-04T20:27:12.916Z,15.90
2019-01-04T20:30:01.474Z,15.73
2019-01-04T20:32:50.515Z,15.66
2019-01-04T20:35:47.467Z,15.51
2019-01-04T20:38:40.728Z,15.57
2019-01-04T20:41:29.596Z,15.68
2019-01-04T20:44:27.776Z,15.68
2019-01-04T20:47:21.249Z,15.52
2019-01-04T20:50:13.370Z,15.49
2019-01-04T20:53:06.518Z,15.49
2019-01-04T20:56:11.862Z,15.20
2019-01-04T20:59:18.037Z,15.20
2019-01-04T21:02:06.785Z,15.14
2019-01-04T21:04:55.842Z,15.42
2019-01-04T21:07:45.021Z,15.42
2019-01-04T21:10:38.273Z,15.44
2019-01-04T21:13:27.136Z,15.49
2019-01-04T21:16:21.103Z,15.07
2019-01-04T21:19:20.527Z,15.31
2019-01-04T21:22:12.557Z,15.37
2019-01-04T21:25:17.179Z,15.32
2019-01-04T21:28:14.439Z,15.32
2019-01-04T21:31:19.781Z,15.26
2019-01-04T21:34:28.309Z,15.26
2019-01-04T21:37:17.157Z,15.36
2019-01-04T21:40:22.594Z,15.43
2019-01-04T21:43:12.689Z,15.34
2019-01-04T21:46:02.985Z,15.34
2019-01-04T21:49:02.498Z,15.23
2019-01-04T21:52:11.304Z,15.33
2019-01-04T21:55:11.841Z,15.37
2019-01-04T21:58:01.205Z,15.37
2019-01-04T22:01:03.382Z,15.34
2019-01-04T22:03:53.980Z,15.27
2019-01-04T22:06:48.616Z,15.10
2019-01-04T22:09:47.781Z,15.36
2019-01-04T22:12:34.379Z,15.36
2019-01-04T22:15:43.095Z,15.34
2019-01-04T22:18:42.908Z,15.34
2019-01-04T22:21:45.296Z,15.32
2019-01-04T22:24:43.722Z,15.37
2019-01-04T22:27:37.107Z,15.34
2019-01-04T22:30:28.237Z,15.27
2019-01-04T22:33:13.110Z,15.30
2019-01-04T22:36:10.362Z,15.36
2019-01-04T22:39:06.782Z,15.38
2019-01-04T22:41:55.343Z,15.38
2019-01-04T22:44:48.606Z,15.33
2019-01-04T22:47:45.130Z,15.33
2019-01-04T22:50:34.703Z,15.35
2019-01-04T22:53:27.677Z,15.20
2019-01-04T22:56:18.055Z,15.20
2019-01-04T22:59:17.566Z,15.22
2019-01-04T23:02:07.042Z,14.98
2019-01-04T23:04:55.894Z,14.98
2019-01-04T23:07:46.294Z,15.14
2019-01-04T23:10:39.145Z,14.98
2019-01-04T23:13:44.681Z,15.01
2019-01-04T23:16:33.140Z,15.01
2019-01-04T23:19:26.605Z,14.96
2019-01-04T23:22:31.959Z,14.96
2019-01-04T23:25:25.817Z,14.85
2019-01-04T23:28:15.333Z,14.81
2019-01-04T23:31:06.293Z,14.81
2019-01-04T23:33:55.054Z,14.74
2019-01-04T23:36:44.018Z,14.75
2019-01-04T23:39:43.121Z,14.60
2019-01-04T23:42:32.282Z,14.52
2019-01-04T23:45:34.851Z,14.73
2019-01-04T23:48:24.020Z,14.73
2019-01-04T23:51:05.298Z,14.41
2019-01-04T23:54:01.427Z,14.41
2019-01-04T23:56:57.572Z,14.41
2019-01-04T23:59:46.104Z,14.63
